TimeEST,TemperatureF,Dew PointF,Humidity,Sea Level PressureIn,VisibilityMPH,Wind Direction,Wind SpeedMPH,Gust SpeedMPH,PrecipitationIn,Events,Conditions,WindDirDegrees,DateUTC
12:53 AM,37.0,33.1,86,29.82,10.0,SSW,6.9,-,N/A,,Clear,210,2012-12-19 05:53:00
1:53 AM,41.0,35.1,79,29.84,10.0,SSW,10.4,-,N/A,,Clear,210,2012-12-19 06:53:00
2:53 AM,43.0,37.0,80,29.87,10.0,SW,5.8,-,N/A,,Clear,220,2012-12-19 07:53:00
3:34 AM,44.6,37.4,76,29.89,10.0,West,10.4,-,N/A,,Mostly Cloudy,280,2012-12-19 08:34:00
3:53 AM,44.1,36.0,73,29.91,10.0,WNW,11.5,20.7,N/A,,Scattered Clouds,290,2012-12-19 08:53:00
4:53 AM,39.9,33.1,77,29.96,10.0,Variable,5.8,-,N/A,,Scattered Clouds,0,2012-12-19 09:53:00
5:43 AM,39.2,33.8,81,29.98,9.0,WNW,6.9,-,N/A,,Mostly Cloudy,290,2012-12-19 10:43:00
5:53 AM,39.0,33.1,79,29.99,8.0,West,6.9,-,N/A,,Overcast,280,2012-12-19 10:53:00
6:53 AM,39.0,33.1,79,30.02,8.0,WNW,4.6,-,N/A,,Overcast,300,2012-12-19 11:53:00
7:53 AM,39.0,33.1,79,30.04,8.0,NW,3.5,-,N/A,,Overcast,310,2012-12-19 12:53:00
8:35 AM,37.4,33.8,87,30.04,7.0,WSW,3.5,-,N/A,,Scattered Clouds,240,2012-12-19 13:35:00
8:50 AM,39.2,33.8,81,30.06,7.0,SW,3.5,-,N/A,,Mostly Cloudy,230,2012-12-19 13:50:00
8:53 AM,39.0,35.1,86,30.07,7.0,Calm,Calm,-,N/A,,Mostly Cloudy,0,2012-12-19 13:53:00
9:53 AM,41.0,34.0,76,30.09,7.0,West,3.5,-,N/A,,Partly Cloudy,270,2012-12-19 14:53:00
10:53 AM,42.1,35.1,76,30.09,7.0,Calm,Calm,-,N/A,,Partly Cloudy,0,2012-12-19 15:53:00
11:53 AM,43.0,36.0,76,30.09,8.0,Calm,Calm,-,N/A,,Clear,0,2012-12-19 16:53:00
12:53 PM,45.0,35.1,68,30.08,9.0,Calm,Calm,-,N/A,,Clear,0,2012-12-19 17:53:00
1:53 PM,46.0,36.0,68,30.09,9.0,Variable,3.5,-,N/A,,Clear,0,2012-12-19 18:53:00
2:53 PM,46.9,36.0,66,30.06,10.0,Calm,Calm,-,N/A,,Clear,0,2012-12-19 19:53:00
3:53 PM,48.9,37.0,64,30.06,10.0,Calm,Calm,-,N/A,,Clear,0,2012-12-19 20:53:00
4:53 PM,45.0,36.0,71,30.07,10.0,Calm,Calm,-,N/A,,Clear,0,2012-12-19 21:53:00
5:53 PM,41.0,36.0,82,30.09,10.0,Calm,Calm,-,N/A,,Clear,0,2012-12-19 22:53:00
6:53 PM,42.1,37.0,82,30.09,10.0,ENE,3.5,-,N/A,,Clear,70,2012-12-19 23:53:00
7:53 PM,42.1,37.0,82,30.08,9.0,NE,4.6,-,N/A,,Overcast,50,2012-12-20 00:53:00
8:53 PM,42.1,37.0,82,30.07,9.0,NNE,5.8,-,N/A,,Overcast,30,2012-12-20 01:53:00
9:53 PM,44.1,37.0,76,30.04,10.0,East,4.6,-,N/A,,Mostly Cloudy,90,2012-12-20 02:53:00
10:53 PM,44.1,37.9,79,30.03,10.0,Calm,Calm,-,N/A,,Overcast,0,2012-12-20 03:53:00
11:53 PM,45.0,37.0,74,29.99,10.0,ESE,4.6,-,N/A,,Overcast,110,2012-12-20 04:53:00